Time;durP1;ratioP1;P1;durP2;ratioP2;P2;SDS_P1;SDS_P2;PMS_P1;PMS_P2;Temp;Humidity;BMP_temperature;BMP_pressure;BME280_temperature;BME280_humidity;BME280_pressure;Samples;Min_cycle;Max_cycle;Signal;HPM_P1;HPM_P2
2023/07/15 00:01:07;;;;;;;3.47;2.50;;;21.40;99.90;;;;;;4968099;28;20197;-71
2023/07/15 00:03:36;;;;;;;2.10;1.90;;;21.30;99.90;;;;;;4969250;28;20739;-72
2023/07/15 00:06:05;;;;;;;2.10;1.90;;;21.30;99.90;;;;;;4970290;28;20217;-73
2023/07/15 00:08:33;;;;;;;3.05;2.17;;;21.30;99.90;;;;;;4967066;28;20248;-71
2023/07/15 00:11:00;;;;;;;2.08;1.98;;;21.30;99.90;;;;;;4968168;28;20262;-72
2023/07/15 00:13:27;;;;;;;3.70;2.13;;;21.30;99.90;;;;;;4967708;28;20619;-71
2023/07/15 00:15:57;;;;;;;2.70;2.28;;;21.40;99.90;;;;;;4969908;28;20237;-73
2023/07/15 00:18:25;;;;;;;1.90;1.80;;;21.40;99.90;;;;;;4968529;28;20221;-72
2023/07/15 00:20:53;;;;;;;2.20;2.00;;;21.30;99.90;;;;;;4969852;28;20647;-72
2023/07/15 00:23:21;;;;;;;2.17;2.03;;;21.40;99.90;;;;;;4966682;28;20289;-72
2023/07/15 00:25:50;;;;;;;2.30;2.10;;;21.40;99.90;;;;;;4967964;28;20744;-73
2023/07/15 00:28:17;;;;;;;2.40;2.20;;;21.40;99.90;;;;;;4965461;28;20276;-72
2023/07/15 00:30:45;;;;;;;2.72;2.10;;;21.40;99.90;;;;;;4967594;28;20677;-72
2023/07/15 00:33:15;;;;;;;3.20;2.20;;;21.40;99.90;;;;;;4965830;28;20210;-72
2023/07/15 00:35:42;;;;;;;1.60;1.50;;;21.40;99.90;;;;;;4967181;28;20250;-72
2023/07/15 00:38:11;;;;;;;1.80;1.70;;;21.30;99.90;;;;;;4962689;28;20320;-72
2023/07/15 00:40:40;;;;;;;2.38;1.95;;;21.30;99.90;;;;;;4971183;28;20660;-71
2023/07/15 00:43:45;;;;;;;1.95;1.85;;;21.40;99.90;;;;;;4964051;28;20220;-71
2023/07/15 00:46:44;;;;;;;2.05;1.90;;;21.40;99.90;;;;;;4967981;28;20225;-71
2023/07/15 00:49:17;;;;;;;2.15;1.95;;;21.40;99.90;;;;;;4963128;28;20281;-72
2023/07/15 00:51:48;;;;;;;2.10;1.90;;;21.30;99.90;;;;;;4970533;28;20205;-71
2023/07/15 00:54:15;;;;;;;1.90;1.67;;;21.30;99.90;;;;;;4972645;28;20208;-72
2023/07/15 00:56:45;;;;;;;2.20;2.00;;;21.30;99.90;;;;;;4961648;28;20221;-72
2023/07/15 00:59:16;;;;;;;2.50;1.92;;;21.30;99.90;;;;;;4963051;28;20236;-71
2023/07/15 01:01:43;;;;;;;2.30;2.05;;;21.30;99.90;;;;;;4974403;28;20205;-72
2023/07/15 01:04:10;;;;;;;2.30;2.10;;;21.20;99.90;;;;;;4967124;28;20897;-72
2023/07/15 01:06:41;;;;;;;2.28;1.90;;;21.20;99.90;;;;;;4964000;28;20218;-71
2023/07/15 01:09:09;;;;;;;2.20;2.00;;;21.10;99.90;;;;;;4966286;28;20205;-72
2023/07/15 01:11:37;;;;;;;1.90;1.80;;;21.10;99.90;;;;;;4961689;28;20213;-73
2023/07/15 01:14:04;;;;;;;2.85;2.20;;;21.10;99.90;;;;;;4960317;28;20210;-71
2023/07/15 01:16:32;;;;;;;2.20;2.00;;;21.10;99.90;;;;;;4960631;28;20228;-71
2023/07/15 01:19:00;;;;;;;2.20;2.00;;;21.10;99.90;;;;;;4960545;28;20224;-71
2023/07/15 01:21:30;;;;;;;2.22;2.03;;;21.00;99.90;;;;;;4962917;28;20668;-69
2023/07/15 01:23:58;;;;;;;2.10;1.92;;;21.00;99.90;;;;;;4959614;28;20205;-72
2023/07/15 01:28:54;;;;;;;2.45;2.17;;;21.00;99.90;;;;;;4916625;29;20233;-77
2023/07/15 01:31:21;;;;;;;2.30;2.08;;;20.90;99.90;;;;;;4922074;29;20207;-77
2023/07/15 01:33:48;;;;;;;2.00;1.90;;;20.90;99.90;;;;;;4921087;29;20662;-77
2023/07/15 01:36:15;;;;;;;2.42;2.10;;;20.90;99.90;;;;;;4923147;29;20302;-78
2023/07/15 01:38:43;;;;;;;2.00;1.90;;;20.90;99.90;;;;;;4941258;28;20887;-77
2023/07/15 01:41:11;;;;;;;2.03;1.88;;;20.90;99.90;;;;;;4938572;28;20198;-77
2023/07/15 01:43:38;;;;;;;2.38;2.10;;;20.90;99.90;;;;;;4936922;28;20222;-77
2023/07/15 01:46:26;;;;;;;1.98;1.88;;;20.90;99.90;;;;;;4938419;28;20285;-78
2023/07/15 01:48:53;;;;;;;2.40;1.92;;;20.90;99.90;;;;;;4933273;28;20207;-77
2023/07/15 01:51:24;;;;;;;2.10;2.00;;;20.90;99.90;;;;;;4946561;28;20265;-78
2023/07/15 01:54:04;;;;;;;3.08;2.35;;;20.90;99.90;;;;;;4944895;28;20230;-77
2023/07/15 01:56:33;;;;;;;2.13;2.03;;;20.90;99.90;;;;;;4946040;28;20874;-77
2023/07/15 01:59:00;;;;;;;1.90;1.80;;;20.80;99.90;;;;;;4947632;28;20304;-77
2023/07/15 02:01:28;;;;;;;2.13;1.83;;;20.80;99.90;;;;;;4947830;28;20649;-78
2023/07/15 02:03:55;;;;;;;2.38;2.17;;;20.80;99.90;;;;;;4944944;28;20261;-78
2023/07/15 02:06:22;;;;;;;2.53;2.30;;;20.80;99.90;;;;;;4942512;28;20580;-77
2023/07/15 02:08:49;;;;;;;2.60;2.40;;;20.80;99.90;;;;;;4947765;28;20269;-81
2023/07/15 02:11:16;;;;;;;2.88;1.90;;;20.70;99.90;;;;;;4949588;28;20800;-78
2023/07/15 02:13:45;;;;;;;2.47;2.28;;;20.70;99.90;;;;;;4947614;28;20225;-78
2023/07/15 02:16:12;;;;;;;2.25;2.15;;;20.70;99.90;;;;;;4946150;28;20261;-78
2023/07/15 02:18:39;;;;;;;3.88;2.05;;;20.70;99.90;;;;;;4946191;28;20266;-77
2023/07/15 02:21:06;;;;;;;2.00;1.90;;;20.70;99.90;;;;;;4947196;28;20202;-78
2023/07/15 02:23:34;;;;;;;2.35;2.15;;;20.70;99.90;;;;;;4947015;28;20689;-77
2023/07/15 02:26:00;;;;;;;2.15;1.90;;;20.60;99.90;;;;;;4943447;28;20562;-77
2023/07/15 02:28:27;;;;;;;2.10;2.00;;;20.60;99.90;;;;;;4944609;28;20302;-77
2023/07/15 02:30:56;;;;;;;2.20;2.00;;;20.60;99.90;;;;;;4944893;28;20235;-77
2023/07/15 02:33:24;;;;;;;1.90;1.80;;;20.60;99.90;;;;;;4944078;28;20206;-77
2023/07/15 02:35:51;;;;;;;3.25;2.20;;;20.60;99.90;;;;;;4948384;28;20214;-77
2023/07/15 02:38:18;;;;;;;3.50;2.10;;;20.50;99.90;;;;;;4950386;28;20688;-77
2023/07/15 02:40:47;;;;;;;2.00;1.90;;;20.50;99.90;;;;;;4944860;28;20701;-77
2023/07/15 02:43:14;;;;;;;2.30;2.10;;;20.50;99.90;;;;;;4949316;28;20202;-78
2023/07/15 02:45:41;;;;;;;2.40;2.20;;;20.50;99.90;;;;;;4954030;28;20231;-77
2023/07/15 02:48:09;;;;;;;1.92;1.83;;;20.40;99.90;;;;;;4953944;28;20227;-78
2023/07/15 02:50:36;;;;;;;2.10;2.00;;;20.40;99.90;;;;;;4953575;28;20677;-78
2023/07/15 02:53:03;;;;;;;2.38;2.20;;;20.40;99.90;;;;;;4949872;28;20253;-78
2023/07/15 02:55:31;;;;;;;2.40;2.20;;;20.40;99.90;;;;;;4947340;28;20281;-77
2023/07/15 02:57:58;;;;;;;2.20;2.00;;;20.40;99.90;;;;;;4944792;28;20231;-78
2023/07/15 03:00:25;;;;;;;2.30;2.15;;;20.40;99.90;;;;;;4945349;28;20214;-77
2023/07/15 03:02:52;;;;;;;2.97;2.47;;;20.30;99.90;;;;;;4945866;28;20245;-76
2023/07/15 03:05:21;;;;;;;2.60;2.40;;;20.30;99.90;;;;;;4942820;28;20207;-76
2023/07/15 03:07:48;;;;;;;3.03;2.72;;;20.30;99.90;;;;;;4945169;28;20225;-77
2023/07/15 03:10:18;;;;;;;2.75;2.38;;;20.20;99.90;;;;;;4944157;28;20234;-79
2023/07/15 03:12:45;;;;;;;2.20;2.10;;;20.20;99.90;;;;;;4948950;28;20198;-78
2023/07/15 03:15:12;;;;;;;2.58;2.35;;;20.20;99.90;;;;;;4941055;28;20677;-78
2023/07/15 03:17:39;;;;;;;2.50;2.30;;;20.20;99.90;;;;;;4943996;28;20250;-78
2023/07/15 03:20:14;;;;;;;2.22;2.13;;;20.20;99.90;;;;;;4941185;28;20245;-78
2023/07/15 03:22:42;;;;;;;2.17;2.03;;;20.20;99.90;;;;;;4944549;28;20668;-78
2023/07/15 03:25:10;;;;;;;2.97;2.67;;;20.10;99.90;;;;;;4947739;28;20266;-78
2023/07/15 03:27:38;;;;;;;2.60;2.40;;;20.10;99.90;;;;;;4941714;28;20223;-78
2023/07/15 03:30:07;;;;;;;2.53;2.33;;;20.10;99.90;;;;;;4941016;28;20289;-78
2023/07/15 03:32:35;;;;;;;2.63;2.42;;;20.10;99.90;;;;;;4943004;28;20425;-77
2023/07/15 03:35:03;;;;;;;3.28;2.33;;;20.10;99.90;;;;;;4942964;28;20713;-77
2023/07/15 03:37:30;;;;;;;2.35;2.15;;;20.10;99.90;;;;;;4944604;28;20851;-78
2023/07/15 03:39:59;;;;;;;2.92;2.70;;;20.10;99.90;;;;;;4941471;28;20253;-78
2023/07/15 03:42:26;;;;;;;2.70;2.50;;;20.10;99.90;;;;;;4943154;28;20210;-78
2023/07/15 03:44:53;;;;;;;2.72;2.53;;;20.10;99.90;;;;;;4940120;28;20210;-77
2023/07/15 03:47:20;;;;;;;2.70;2.50;;;20.10;99.90;;;;;;4944158;28;20708;-77
2023/07/15 03:49:47;;;;;;;2.58;2.30;;;20.00;99.90;;;;;;4944854;28;20581;-78
2023/07/15 03:52:14;;;;;;;2.55;2.35;;;20.00;99.90;;;;;;4941938;28;20238;-77
2023/07/15 03:54:43;;;;;;;2.50;2.30;;;20.00;99.90;;;;;;4944695;28;20268;-77
2023/07/15 03:57:11;;;;;;;2.67;2.47;;;20.00;99.90;;;;;;4942859;28;20309;-77
2023/07/15 03:59:38;;;;;;;2.67;2.47;;;20.00;99.90;;;;;;4942438;28;20242;-77
2023/07/15 04:02:06;;;;;;;2.70;2.50;;;20.00;99.90;;;;;;4942315;28;20286;-77
2023/07/15 04:04:33;;;;;;;2.30;2.10;;;20.00;99.90;;;;;;4941895;28;20203;-77
2023/07/15 04:07:01;;;;;;;2.60;2.40;;;20.00;99.90;;;;;;4939737;28;20246;-76
2023/07/15 04:09:28;;;;;;;2.85;2.65;;;20.00;99.90;;;;;;4944683;28;20206;-78
2023/07/15 04:11:55;;;;;;;2.60;2.40;;;20.00;99.90;;;;;;4943803;28;20206;-77
2023/07/15 04:14:24;;;;;;;2.63;2.42;;;20.00;99.90;;;;;;4945192;28;20245;-77
2023/07/15 04:16:51;;;;;;;4.05;2.70;;;20.00;99.90;;;;;;4946629;28;20226;-78
2023/07/15 04:19:18;;;;;;;4.40;2.72;;;20.00;99.90;;;;;;4945001;28;20210;-78
2023/07/15 04:21:44;;;;;;;3.22;2.60;;;20.10;99.90;;;;;;4944112;28;20784;-78
2023/07/15 04:24:11;;;;;;;3.03;2.70;;;20.20;99.90;;;;;;4944863;28;20226;-77
2023/07/15 04:26:39;;;;;;;2.88;2.67;;;20.20;99.90;;;;;;4942938;28;20269;-78
2023/07/15 04:29:06;;;;;;;2.70;2.50;;;20.30;99.90;;;;;;4942919;28;20202;-78
2023/07/15 04:31:35;;;;;;;2.60;2.40;;;20.40;99.90;;;;;;4942980;28;20207;-77
2023/07/15 04:34:02;;;;;;;2.35;2.15;;;20.50;99.90;;;;;;4942813;28;20214;-78
2023/07/15 04:36:29;;;;;;;3.00;2.80;;;20.50;99.90;;;;;;4945614;28;20779;-77
2023/07/15 04:38:56;;;;;;;3.13;2.53;;;20.60;99.90;;;;;;4945563;28;20285;-77
2023/07/15 04:41:23;;;;;;;3.15;2.50;;;20.70;99.90;;;;;;4944470;28;20206;-77
2023/07/15 04:43:50;;;;;;;3.00;2.70;;;20.70;99.90;;;;;;4941042;28;20354;-76
2023/07/15 04:46:17;;;;;;;2.45;2.20;;;20.80;99.90;;;;;;4943565;28;20233;-77
2023/07/15 04:48:45;;;;;;;3.25;2.63;;;20.80;99.90;;;;;;4943050;28;20253;-77
2023/07/15 04:51:12;;;;;;;2.75;2.22;;;20.90;99.90;;;;;;4942822;28;20688;-76
2023/07/15 04:53:43;;;;;;;2.97;2.78;;;21.00;99.90;;;;;;4943637;28;20342;-77
2023/07/15 04:56:10;;;;;;;2.97;2.70;;;21.10;99.90;;;;;;4939464;28;20207;-76
2023/07/15 04:58:37;;;;;;;2.80;2.60;;;21.20;99.90;;;;;;4943264;28;20873;-78
2023/07/15 05:01:04;;;;;;;3.05;2.70;;;21.30;99.90;;;;;;4943202;28;20214;-77
2023/07/15 05:03:31;;;;;;;2.72;2.53;;;21.40;99.90;;;;;;4943163;28;20325;-77
2023/07/15 05:06:00;;;;;;;2.95;2.75;;;21.40;99.90;;;;;;4946424;28;20234;-77
2023/07/15 05:08:28;;;;;;;3.40;2.80;;;21.40;99.90;;;;;;4944118;28;20221;-78
2023/07/15 05:10:55;;;;;;;2.97;2.78;;;21.50;99.90;;;;;;4938920;28;20391;-77
2023/07/15 05:13:23;;;;;;;3.00;2.70;;;21.50;99.90;;;;;;4943888;28;20772;-77
2023/07/15 05:15:51;;;;;;;3.83;2.90;;;21.60;99.90;;;;;;4942880;28;20198;-77
2023/07/15 05:18:18;;;;;;;3.58;3.00;;;21.60;99.90;;;;;;4940668;28;20673;-78
2023/07/15 05:20:44;;;;;;;4.05;3.15;;;21.50;99.90;;;;;;4939611;28;20245;-78
2023/07/15 05:23:14;;;;;;;3.08;2.80;;;21.60;99.90;;;;;;4945991;28;20206;-77
2023/07/15 05:25:41;;;;;;;3.97;3.03;;;21.70;99.90;;;;;;4942859;28;20206;-78
2023/07/15 05:28:08;;;;;;;3.17;2.83;;;21.70;99.90;;;;;;4944209;28;20768;-77
2023/07/15 05:30:37;;;;;;;3.45;3.15;;;21.80;99.90;;;;;;4943386;28;20202;-78
2023/07/15 05:33:03;;;;;;;3.17;2.97;;;21.80;99.90;;;;;;4945370;28;20206;-79
2023/07/15 05:35:30;;;;;;;3.40;3.10;;;21.90;99.90;;;;;;4945857;28;20253;-78
2023/07/15 05:37:57;;;;;;;3.08;2.83;;;22.00;99.90;;;;;;4943858;28;20253;-78
2023/07/15 05:40:26;;;;;;;3.22;2.95;;;22.10;99.90;;;;;;4945747;28;20222;-79
2023/07/15 05:42:53;;;;;;;3.45;3.15;;;22.30;99.90;;;;;;4941735;28;20206;-79
2023/07/15 05:45:20;;;;;;;3.42;3.10;;;22.30;99.90;;;;;;4946433;28;20292;-77
2023/07/15 05:47:47;;;;;;;4.50;3.10;;;22.40;99.90;;;;;;4942987;28;20223;-78
2023/07/15 05:50:13;;;;;;;3.78;3.47;;;22.40;99.90;;;;;;4948279;28;20277;-79
2023/07/15 05:52:40;;;;;;;3.80;3.40;;;22.40;99.90;;;;;;4949937;28;20253;-78
2023/07/15 05:55:08;;;;;;;4.82;3.30;;;22.40;99.90;;;;;;4947187;28;20285;-77
2023/07/15 05:57:36;;;;;;;3.97;3.35;;;22.50;99.90;;;;;;4945431;28;20222;-77
2023/07/15 06:00:07;;;;;;;9.52;3.38;;;22.70;99.90;;;;;;4942043;28;20675;-77
2023/07/15 06:02:34;;;;;;;3.63;3.17;;;22.80;99.90;;;;;;4944536;28;20258;-79
2023/07/15 06:05:00;;;;;;;4.60;3.95;;;23.00;99.90;;;;;;4944417;28;20301;-78
2023/07/15 06:07:27;;;;;;;4.25;3.53;;;23.10;99.90;;;;;;4942723;28;20223;-79
2023/07/15 06:09:54;;;;;;;4.47;3.47;;;23.10;99.90;;;;;;4945644;28;20195;-77
2023/07/15 06:12:21;;;;;;;3.97;3.45;;;23.20;99.90;;;;;;4944430;28;20202;-79
2023/07/15 06:14:50;;;;;;;3.53;3.22;;;23.10;99.90;;;;;;4945502;28;20258;-77
2023/07/15 06:17:17;;;;;;;4.38;3.50;;;23.20;99.90;;;;;;4943543;28;20914;-78
2023/07/15 06:19:43;;;;;;;3.67;3.38;;;23.30;99.90;;;;;;4943334;28;20314;-77
2023/07/15 06:22:10;;;;;;;4.70;2.97;;;23.40;99.90;;;;;;4942652;28;20285;-78
2023/07/15 06:24:37;;;;;;;4.32;3.88;;;23.40;99.90;;;;;;4943194;28;20206;-78
2023/07/15 06:27:05;;;;;;;3.97;3.58;;;23.50;99.90;;;;;;4944172;28;20285;-78
2023/07/15 06:29:32;;;;;;;7.32;3.70;;;23.50;99.90;;;;;;4941860;28;20195;-77
2023/07/15 06:32:01;;;;;;;5.03;3.95;;;23.60;99.90;;;;;;4944915;28;20226;-78
2023/07/15 06:34:29;;;;;;;4.05;3.63;;;23.50;99.90;;;;;;4939257;28;20226;-78
2023/07/15 06:36:56;;;;;;;4.20;3.80;;;23.50;99.90;;;;;;4945041;28;20218;-77
2023/07/15 06:39:23;;;;;;;4.45;3.58;;;23.60;99.90;;;;;;4945061;28;20230;-78
2023/07/15 06:41:51;;;;;;;3.63;3.33;;;23.80;99.90;;;;;;4945590;28;20249;-78
2023/07/15 06:44:18;;;;;;;4.15;3.75;;;24.00;99.90;;;;;;4943923;28;20301;-79
2023/07/15 06:46:45;;;;;;;3.97;3.58;;;24.00;99.90;;;;;;4943470;28;20282;-77
2023/07/15 06:49:13;;;;;;;3.75;3.45;;;24.10;99.90;;;;;;4943344;28;20234;-77
2023/07/15 06:51:40;;;;;;;4.95;3.67;;;24.20;99.90;;;;;;4939426;28;20237;-78
2023/07/15 06:54:07;;;;;;;3.83;3.53;;;24.30;99.90;;;;;;4942225;28;20686;-79
2023/07/15 06:56:34;;;;;;;3.80;3.50;;;24.30;99.90;;;;;;4942538;28;20210;-77
2023/07/15 06:59:01;;;;;;;3.17;2.97;;;24.40;99.90;;;;;;4941732;28;20210;-80
2023/07/15 07:01:28;;;;;;;3.83;3.53;;;24.60;99.90;;;;;;4942948;28;20313;-79
2023/07/15 07:03:55;;;;;;;3.65;3.35;;;25.00;99.90;;;;;;4943526;28;20564;-78
2023/07/15 07:06:23;;;;;;;3.78;3.47;;;25.10;99.90;;;;;;4943873;28;20354;-79
2023/07/15 07:08:50;;;;;;;3.72;3.42;;;25.20;99.90;;;;;;4941582;28;20227;-78
2023/07/15 07:11:17;;;;;;;4.22;3.45;;;25.30;99.90;;;;;;4942187;28;20195;-78
2023/07/15 07:13:44;;;;;;;4.80;3.88;;;25.30;99.90;;;;;;4945539;28;20206;-78
2023/07/15 07:16:11;;;;;;;3.60;3.30;;;25.20;99.90;;;;;;4946783;28;20233;-77
2023/07/15 07:18:39;;;;;;;4.13;3.72;;;25.40;99.90;;;;;;4941161;28;20321;-78
2023/07/15 07:21:06;;;;;;;6.13;3.78;;;25.30;99.90;;;;;;4943541;28;20542;-79
2023/07/15 07:23:34;;;;;;;4.22;3.80;;;25.20;99.90;;;;;;4942542;28;20234;-78
2023/07/15 07:26:01;;;;;;;4.38;3.92;;;25.30;99.90;;;;;;4946367;28;20226;-81
2023/07/15 07:28:40;;;;;;;6.35;4.10;;;25.30;99.90;;;;;;4943153;28;20261;-77
2023/07/15 07:31:07;;;;;;;4.43;4.03;;;25.30;99.90;;;;;;4942746;28;20273;-79
2023/07/15 07:33:34;;;;;;;4.28;3.70;;;25.40;99.90;;;;;;4941563;28;20217;-79
2023/07/15 07:36:02;;;;;;;4.18;3.78;;;25.30;99.90;;;;;;4941561;28;20644;-78
2023/07/15 07:38:29;;;;;;;3.63;3.33;;;25.40;99.90;;;;;;4941537;28;20281;-78
2023/07/15 07:41:04;;;;;;;4.68;4.00;;;25.40;99.90;;;;;;4943748;28;20253;-78
2023/07/15 07:43:31;;;;;;;5.18;3.92;;;25.60;99.90;;;;;;4944885;28;21062;-79
2023/07/15 07:45:58;;;;;;;7.88;4.10;;;25.60;99.90;;;;;;4945494;28;20209;-78
2023/07/15 07:48:25;;;;;;;3.67;3.33;;;25.70;99.90;;;;;;4945067;28;20270;-78
2023/07/15 07:50:52;;;;;;;4.68;3.67;;;25.70;99.90;;;;;;4944675;28;20221;-77
2023/07/15 07:53:19;;;;;;;5.07;4.03;;;25.90;99.90;;;;;;4945126;28;20506;-77
2023/07/15 07:55:46;;;;;;;4.60;4.15;;;26.10;99.90;;;;;;4947334;28;20198;-80
2023/07/15 07:58:14;;;;;;;4.18;3.67;;;26.10;99.90;;;;;;4941063;28;20321;-78
2023/07/15 08:00:41;;;;;;;3.67;3.38;;;26.00;99.90;;;;;;4943883;28;20321;-77
2023/07/15 08:03:08;;;;;;;4.95;3.72;;;26.10;99.90;;;;;;4942726;28;20206;-78
2023/07/15 08:05:35;;;;;;;3.95;3.45;;;26.20;99.90;;;;;;4944766;28;20930;-78
2023/07/15 08:08:01;;;;;;;5.90;4.00;;;26.20;99.90;;;;;;4940984;28;20305;-78
2023/07/15 08:10:30;;;;;;;3.97;3.60;;;26.30;99.90;;;;;;4935219;28;20234;-78
2023/07/15 08:12:57;;;;;;;4.63;4.03;;;26.40;99.90;;;;;;4943370;28;20206;-79
2023/07/15 08:15:25;;;;;;;4.82;3.70;;;26.50;99.90;;;;;;4940837;28;20206;-78
2023/07/15 08:17:52;;;;;;;5.45;3.60;;;26.70;99.90;;;;;;4941065;28;20249;-77
2023/07/15 08:20:19;;;;;;;5.78;3.80;;;27.00;99.90;;;;;;4940380;28;20309;-79
2023/07/15 08:22:47;;;;;;;4.78;4.10;;;27.10;99.90;;;;;;4938401;28;20666;-79
2023/07/15 08:25:14;;;;;;;3.28;3.08;;;27.30;99.90;;;;;;4940123;28;20198;-77
2023/07/15 08:27:41;;;;;;;5.10;3.97;;;27.30;99.90;;;;;;4936187;28;20254;-80
2023/07/15 08:30:09;;;;;;;5.18;3.25;;;27.30;99.90;;;;;;4940789;28;20190;-78
2023/07/15 08:32:37;;;;;;;4.13;3.72;;;27.40;99.90;;;;;;4935529;28;20295;-77
2023/07/15 08:35:05;;;;;;;4.28;3.75;;;27.30;99.90;;;;;;4939175;28;20774;-78
2023/07/15 08:37:33;;;;;;;4.28;3.92;;;27.40;99.90;;;;;;4937411;28;20246;-78
2023/07/15 08:40:00;;;;;;;4.18;3.65;;;27.50;99.90;;;;;;4942117;28;20293;-77
2023/07/15 08:42:28;;;;;;;5.10;3.97;;;27.60;99.90;;;;;;4937033;28;20805;-76
2023/07/15 08:44:56;;;;;;;3.72;3.25;;;27.60;99.90;;;;;;4939510;28;20241;-79
2023/07/15 08:47:24;;;;;;;3.72;3.38;;;27.70;99.90;;;;;;4945062;28;20219;-80
2023/07/15 08:49:58;;;;;;;3.55;3.20;;;27.70;99.90;;;;;;4940860;28;20627;-77
2023/07/15 08:52:26;;;;;;;3.88;3.33;;;27.80;99.90;;;;;;4943953;28;20210;-77
2023/07/15 08:54:56;;;;;;;3.63;3.22;;;27.80;99.90;;;;;;4944017;28;20214;-79
2023/07/15 08:57:24;;;;;;;3.75;3.25;;;27.90;99.90;;;;;;4943074;28;20261;-78
2023/07/15 08:59:53;;;;;;;3.53;3.22;;;28.00;99.90;;;;;;4941967;28;20203;-77
2023/07/15 09:02:24;;;;;;;3.50;2.92;;;28.00;99.90;;;;;;4944429;28;20321;-78
2023/07/15 09:04:52;;;;;;;4.00;3.20;;;28.00;99.90;;;;;;4944409;28;20206;-78
2023/07/15 09:07:32;;;;;;;4.05;3.30;;;27.90;99.90;;;;;;4945118;28;20229;-77
2023/07/15 09:10:06;;;;;;;3.65;3.35;;;27.90;99.90;;;;;;4945481;28;20679;-79
2023/07/15 09:12:34;;;;;;;4.13;3.80;;;27.90;99.90;;;;;;4943415;28;20210;-79
2023/07/15 09:15:08;;;;;;;4.22;3.83;;;28.10;99.90;;;;;;4943660;28;20241;-78
2023/07/15 09:17:36;;;;;;;4.18;3.78;;;28.00;99.90;;;;;;4941298;28;20656;-77
2023/07/15 09:20:22;;;;;;;3.47;3.17;;;28.10;99.90;;;;;;4944630;28;20209;-77
2023/07/15 09:22:52;;;;;;;3.65;3.20;;;28.10;99.90;;;;;;4941920;28;20194;-79
2023/07/15 09:25:22;;;;;;;4.75;3.30;;;28.20;99.90;;;;;;4939386;28;20198;-78
2023/07/15 09:27:49;;;;;;;3.53;3.22;;;28.30;99.90;;;;;;4941652;28;20236;-78
2023/07/15 09:30:16;;;;;;;3.92;3.28;;;28.50;99.90;;;;;;4941002;28;20218;-77
2023/07/15 09:32:43;;;;;;;5.10;3.15;;;28.60;99.90;;;;;;4943705;28;20298;-78
2023/07/15 09:35:10;;;;;;;6.93;3.10;;;28.60;99.90;;;;;;4945724;28;20669;-81
2023/07/15 09:37:41;;;;;;;4.40;3.45;;;28.80;99.90;;;;;;4942877;28;20261;-77
2023/07/15 09:40:10;;;;;;;4.43;3.75;;;28.80;99.90;;;;;;4943737;28;20250;-78
2023/07/15 09:42:55;;;;;;;4.18;2.83;;;28.90;99.90;;;;;;4941857;28;20235;-79
2023/07/15 09:45:33;;;;;;;3.45;3.15;;;29.20;99.90;;;;;;4944143;28;20209;-79
2023/07/15 09:48:00;;;;;;;3.70;3.38;;;29.20;99.90;;;;;;4946558;28;20221;-78
2023/07/15 09:50:29;;;;;;;6.15;4.25;;;29.30;99.90;;;;;;4937919;28;20206;-78
2023/07/15 09:53:00;;;;;;;3.70;3.40;;;29.20;99.90;;;;;;4934865;28;20202;-78
2023/07/15 09:55:28;;;;;;;3.40;3.05;;;29.20;99.90;;;;;;4939791;28;20750;-78
2023/07/15 09:58:03;;;;;;;4.28;3.70;;;29.20;99.90;;;;;;4936830;28;20249;-78
2023/07/15 10:00:32;;;;;;;4.28;3.30;;;29.30;99.90;;;;;;4939645;28;20210;-77
2023/07/15 10:03:02;;;;;;;3.92;3.33;;;29.30;99.90;;;;;;4938924;28;20206;-78
2023/07/15 10:05:31;;;;;;;4.30;3.47;;;29.20;99.90;;;;;;4941628;28;20207;-78
2023/07/15 10:08:00;;;;;;;3.88;3.47;;;29.20;99.90;;;;;;4940219;28;20226;-78
2023/07/15 10:10:28;;;;;;;4.53;3.30;;;29.20;99.90;;;;;;4939122;28;20293;-77
2023/07/15 10:12:55;;;;;;;3.50;3.20;;;29.10;99.90;;;;;;4939956;28;20811;-80
2023/07/15 10:15:23;;;;;;;6.95;3.72;;;29.10;99.90;;;;;;4942872;28;20206;-78
2023/07/15 10:17:50;;;;;;;8.95;3.85;;;29.20;99.90;;;;;;4939463;28;20222;-78
2023/07/15 10:20:18;;;;;;;4.70;3.55;;;29.20;99.90;;;;;;4936848;28;20225;-79
2023/07/15 10:22:45;;;;;;;4.45;3.55;;;29.20;99.90;;;;;;4937009;28;20306;-78
2023/07/15 10:25:15;;;;;;;3.90;3.35;;;29.20;99.90;;;;;;4939138;28;20419;-78
2023/07/15 10:27:42;;;;;;;4.65;3.20;;;29.40;99.90;;;;;;4936859;28;20242;-78
2023/07/15 10:30:17;;;;;;;3.80;3.45;;;29.50;99.90;;;;;;4945280;28;20210;-79
2023/07/15 10:33:12;;;;;;;4.82;3.65;;;29.60;99.90;;;;;;4938923;28;20202;-80
2023/07/15 10:35:52;;;;;;;3.53;3.22;;;29.60;99.90;;;;;;4940680;28;20721;-78
2023/07/15 10:38:28;;;;;;;6.25;3.20;;;29.80;99.90;;;;;;4938734;28;20986;-78
2023/07/15 10:40:59;;;;;;;4.63;4.15;;;29.90;99.90;;;;;;4936556;28;20595;-76
2023/07/15 10:43:37;;;;;;;3.75;3.22;;;29.90;99.90;;;;;;4935719;28;20236;-79
2023/07/15 10:46:06;;;;;;;3.88;3.03;;;29.90;99.90;;;;;;4939173;28;20206;-78
2023/07/15 10:48:34;;;;;;;4.28;3.38;;;30.00;99.90;;;;;;4938638;28;20230;-76
2023/07/15 10:51:03;;;;;;;4.63;3.15;;;30.20;99.90;;;;;;4941015;28;20285;-79
2023/07/15 10:53:30;;;;;;;4.00;3.63;;;30.30;99.90;;;;;;4936347;28;20297;-76
2023/07/15 10:56:01;;;;;;;3.85;3.05;;;30.50;99.90;;;;;;4933510;28;20325;-75
2023/07/15 10:58:29;;;;;;;3.60;3.30;;;30.70;99.90;;;;;;4938611;28;20313;-80
2023/07/15 11:01:00;;;;;;;5.72;3.40;;;30.80;99.90;;;;;;4937356;28;20202;-78
2023/07/15 11:03:28;;;;;;;5.63;3.50;;;30.90;99.90;;;;;;4937728;28;20291;-79
2023/07/15 11:05:57;;;;;;;5.63;3.30;;;30.90;99.90;;;;;;4939075;28;21110;-79
2023/07/15 11:08:24;;;;;;;5.65;3.53;;;31.00;99.90;;;;;;4943403;28;20222;-81
2023/07/15 11:17:27;;;;;;;5.00;3.70;;;31.30;99.90;;;;;;4905313;29;20409;-80
2023/07/15 11:20:08;;;;;;;4.93;3.85;;;31.40;99.90;;;;;;4926524;29;20274;-79
2023/07/15 11:22:55;;;;;;;4.22;3.60;;;31.20;99.90;;;;;;4929257;28;20218;-79
2023/07/15 11:25:22;;;;;;;5.10;3.53;;;31.10;99.90;;;;;;4949947;28;20270;-79
2023/07/15 11:28:05;;;;;;;5.55;3.17;;;31.20;99.90;;;;;;4944628;28;20233;-78
2023/07/15 11:37:07;;;;;;;4.55;3.45;;;31.30;99.90;;;;;;4948790;28;20206;-80
2023/07/15 11:39:41;;;;;;;3.97;3.45;;;31.50;99.90;;;;;;4943285;28;20614;-79
2023/07/15 11:42:09;;;;;;;4.78;3.47;;;31.70;99.90;;;;;;4947445;28;20218;-79
2023/07/15 11:44:56;;;;;;;5.50;3.50;;;31.90;99.90;;;;;;4947686;28;20210;-79
2023/07/15 11:47:23;;;;;;;3.72;3.40;;;31.80;99.90;;;;;;4951760;28;20214;-80
2023/07/15 11:49:50;;;;;;;4.38;3.55;;;31.80;99.90;;;;;;4945364;28;20202;-79
2023/07/15 11:52:22;;;;;;;6.15;4.00;;;31.70;99.90;;;;;;4938190;28;20217;-78
2023/07/15 11:54:49;;;;;;;6.70;3.92;;;31.60;99.90;;;;;;4934879;28;20199;-78
2023/07/15 11:57:25;;;;;;;8.48;3.67;;;31.60;99.90;;;;;;4933127;28;20305;-78
2023/07/15 11:59:52;;;;;;;4.20;3.80;;;31.40;99.90;;;;;;4929634;28;20206;-76
2023/07/15 12:02:21;;;;;;;4.25;3.83;;;31.40;99.90;;;;;;4934094;28;20226;-76
2023/07/15 12:04:49;;;;;;;4.95;3.70;;;31.60;99.90;;;;;;4931529;28;20256;-76
2023/07/15 12:07:20;;;;;;;6.35;4.13;;;31.70;99.90;;;;;;4933157;28;20277;-77
2023/07/15 12:10:04;;;;;;;4.25;3.85;;;31.70;99.90;;;;;;4932897;28;20315;-76
2023/07/15 12:12:31;;;;;;;5.22;3.50;;;31.50;99.90;;;;;;4933949;28;20298;-76
2023/07/15 12:14:58;;;;;;;5.13;3.65;;;31.50;99.90;;;;;;4935091;28;20720;-79
2023/07/15 12:17:25;;;;;;;6.22;3.90;;;31.70;99.90;;;;;;4936465;28;20274;-78
2023/07/15 12:19:52;;;;;;;5.30;3.78;;;31.60;99.90;;;;;;4934700;28;20735;-78
2023/07/15 12:22:19;;;;;;;5.43;3.95;;;31.60;99.90;;;;;;4938233;28;20230;-79
2023/07/15 12:24:47;;;;;;;6.13;3.47;;;31.60;99.90;;;;;;4939409;28;20334;-81
2023/07/15 12:27:14;;;;;;;6.05;3.75;;;31.70;99.90;;;;;;4937340;28;20317;-80
2023/07/15 12:29:41;;;;;;;4.88;4.03;;;31.80;99.90;;;;;;4934686;28;20638;-79
2023/07/15 12:32:09;;;;;;;6.50;3.55;;;31.70;99.90;;;;;;4938118;28;20500;-75
2023/07/15 12:34:35;;;;;;;6.90;4.20;;;31.70;99.90;;;;;;4932037;28;20293;-79
2023/07/15 12:37:02;;;;;;;5.57;4.05;;;31.60;99.90;;;;;;4938914;28;20808;-76
2023/07/15 12:39:30;;;;;;;6.82;4.03;;;31.60;99.90;;;;;;4937038;28;20890;-76
2023/07/15 12:41:58;;;;;;;4.07;3.65;;;31.60;99.90;;;;;;4933487;28;20325;-76
2023/07/15 12:44:26;;;;;;;3.80;3.40;;;31.90;99.90;;;;;;4933224;28;20318;-79
2023/07/15 12:46:53;;;;;;;8.63;4.43;;;32.20;99.90;;;;;;4937307;28;20218;-79
2023/07/15 12:49:20;;;;;;;4.13;3.60;;;32.40;99.90;;;;;;4932212;28;20286;-77
2023/07/15 12:51:47;;;;;;;5.90;3.90;;;32.20;99.90;;;;;;4935174;28;20286;-76
2023/07/15 12:54:13;;;;;;;5.55;4.25;;;32.00;99.90;;;;;;4935954;28;20246;-77
2023/07/15 12:56:40;;;;;;;7.97;4.30;;;31.60;99.90;;;;;;4937694;28;20290;-75
2023/07/15 12:59:09;;;;;;;5.60;3.95;;;31.70;99.90;;;;;;4929351;28;20813;-77
2023/07/15 13:01:36;;;;;;;6.75;3.97;;;31.90;99.90;;;;;;4932206;28;20223;-76
2023/07/15 13:04:04;;;;;;;6.53;4.10;;;31.90;99.90;;;;;;4931559;28;20585;-76
2023/07/15 13:06:31;;;;;;;7.57;4.07;;;31.90;99.90;;;;;;4936547;28;20297;-76
2023/07/15 13:08:58;;;;;;;4.75;3.63;;;31.90;99.90;;;;;;4929667;28;20421;-78
2023/07/15 13:11:25;;;;;;;4.28;3.65;;;31.90;99.90;;;;;;4931822;28;20234;-78